Time;durP1;ratioP1;P1;durP2;ratioP2;P2;SDS_P1;SDS_P2;PMS_P1;PMS_P2;Temp;Humidity;BMP_temperature;BMP_pressure;BME280_temperature;BME280_humidity;BME280_pressure;Samples;Min_cycle;Max_cycle;Signal;HPM_P1;HPM_P2
2023/07/20 00:01:26;;;;;;;3.30;1.13;;;15.10;99.90;;;15.28;100.00;100475.50;4988973;28;20038;-81
2023/07/20 00:03:54;;;;;;;2.25;1.00;;;15.00;99.90;;;15.21;100.00;100470.16;4989981;28;20082;-81
2023/07/20 00:06:27;;;;;;;1.38;1.00;;;15.00;99.90;;;15.19;100.00;100472.34;4988856;28;20053;-81
2023/07/20 00:08:56;;;;;;;2.05;1.02;;;14.90;99.90;;;15.14;100.00;100476.94;4988864;28;20073;-80
2023/07/20 00:11:27;;;;;;;2.38;1.10;;;14.80;99.90;;;15.06;100.00;100473.50;4984065;28;20039;-81
2023/07/20 00:13:53;;;;;;;1.40;0.88;;;14.80;99.90;;;15.00;100.00;100469.03;4992410;28;20038;-82
2023/07/20 00:16:19;;;;;;;2.97;1.10;;;14.80;99.90;;;14.98;100.00;100468.44;4990948;28;20391;-81
2023/07/20 00:18:45;;;;;;;1.75;1.10;;;14.70;99.90;;;14.91;100.00;100462.31;4989960;28;20054;-81
2023/07/20 00:21:10;;;;;;;2.22;1.02;;;14.70;99.90;;;14.87;100.00;100447.41;4979349;28;20034;-81
2023/07/20 00:23:37;;;;;;;2.42;1.10;;;14.70;99.90;;;14.90;100.00;100460.66;4980043;28;20407;-81
2023/07/20 00:26:03;;;;;;;2.55;1.10;;;14.60;99.90;;;14.86;100.00;100454.00;4987603;28;20373;-81
2023/07/20 00:28:29;;;;;;;2.40;1.10;;;14.60;99.90;;;14.79;100.00;100449.47;4985276;28;20056;-82
2023/07/20 00:30:54;;;;;;;3.13;1.40;;;14.60;99.90;;;14.85;100.00;100436.66;4977784;28;20039;-80
2023/07/20 00:33:20;;;;;;;3.10;1.40;;;14.70;99.90;;;14.96;100.00;100438.47;4989448;28;20054;-81
2023/07/20 00:35:46;;;;;;;4.63;1.80;;;14.70;99.90;;;14.95;100.00;100446.97;4989704;28;20458;-80
2023/07/20 00:38:12;;;;;;;2.45;1.27;;;14.80;99.90;;;14.94;100.00;100448.88;4977093;28;20034;-80
2023/07/20 00:40:41;;;;;;;1.98;1.17;;;14.80;99.90;;;14.94;100.00;100454.38;4993435;28;20034;-79
2023/07/20 00:43:09;;;;;;;2.20;1.30;;;14.90;99.90;;;14.96;100.00;100445.91;4980904;28;20045;-80
2023/07/20 00:45:36;;;;;;;1.58;1.00;;;14.90;99.90;;;14.95;100.00;100450.53;4992242;28;20038;-80
2023/07/20 00:48:04;;;;;;;2.47;1.30;;;14.90;99.90;;;14.97;100.00;100453.06;4989426;28;20038;-81
2023/07/20 00:50:32;;;;;;;1.60;1.10;;;14.80;99.90;;;14.99;100.00;100447.31;4988145;28;20498;-81
2023/07/20 00:52:58;;;;;;;2.60;1.10;;;14.80;99.90;;;14.93;100.00;100438.97;4990524;28;20035;-82
2023/07/20 00:55:26;;;;;;;1.55;1.00;;;14.70;99.90;;;14.84;100.00;100436.91;4987307;28;20051;-80
2023/07/20 00:57:53;;;;;;;3.47;1.10;;;14.70;99.90;;;14.84;100.00;100431.41;4994764;28;20076;-79
2023/07/20 01:00:19;;;;;;;1.92;1.10;;;14.70;99.90;;;14.83;100.00;100433.34;4995792;28;20042;-80
2023/07/20 01:02:47;;;;;;;1.80;1.10;;;14.70;99.90;;;14.77;100.00;100426.13;4989266;28;20178;-80
2023/07/20 01:05:16;;;;;;;2.10;1.33;;;14.60;99.90;;;14.73;100.00;100419.47;5000895;28;20054;-80
2023/07/20 01:08:16;;;;;;;1.92;1.20;;;14.60;99.90;;;14.72;100.00;100435.09;4998001;28;20050;-79
2023/07/20 01:11:09;;;;;;;2.22;1.10;;;14.60;99.90;;;14.70;100.00;100434.47;4991414;28;20022;-80
2023/07/20 01:13:37;;;;;;;2.08;1.15;;;14.60;99.90;;;14.63;100.00;100442.06;4992541;28;20062;-81
2023/07/20 01:16:03;;;;;;;;;;;14.50;99.90;;;14.61;100.00;100434.06;4979199;28;20472;-81
2023/07/20 01:18:29;;;;;;;3.90;1.58;;;14.50;99.90;;;14.57;100.00;100429.31;4988824;28;20007;-81
2023/07/20 01:21:06;;;;;;;2.92;1.40;;;14.40;99.90;;;14.49;100.00;100434.13;4982813;28;20142;-82
2023/07/20 01:23:57;;;;;;;2.63;1.10;;;14.20;99.90;;;14.22;100.00;100436.69;4976055;28;20113;-81
2023/07/20 01:27:08;;;;;;;2.78;1.10;;;13.90;99.90;;;14.04;100.00;100434.97;4994283;28;20038;-82
2023/07/20 01:30:07;;;;;;;;;;;13.70;99.90;;;13.88;100.00;100420.97;4985976;28;20046;-82
2023/07/20 01:32:36;;;;;;;2.35;1.10;;;13.60;99.90;;;13.72;100.00;100422.59;4977625;28;19922;-81
2023/07/20 01:35:05;;;;;;;2.40;1.00;;;13.40;99.90;;;13.56;100.00;100417.84;4979347;28;20046;-82
2023/07/20 01:37:34;;;;;;;2.00;1.00;;;13.20;99.90;;;13.43;100.00;100416.22;4979656;28;20069;-82
2023/07/20 01:40:00;;;;;;;2.22;1.15;;;13.10;99.90;;;13.57;100.00;100425.00;4988386;28;20053;-82
2023/07/20 01:42:26;;;;;;;2.38;1.05;;;13.00;99.90;;;13.28;100.00;100414.78;4982842;28;20043;-82
2023/07/20 01:44:53;;;;;;;1.25;0.98;;;12.90;99.90;;;13.56;100.00;100410.47;4979651;28;20023;-81
2023/07/20 01:47:19;;;;;;;2.45;1.25;;;12.90;99.90;;;13.33;100.00;100406.69;4988059;28;20054;-82
2023/07/20 01:49:45;;;;;;;1.98;1.08;;;12.90;99.90;;;13.30;100.00;100403.56;4986928;28;20038;-82
2023/07/20 01:52:11;;;;;;;2.20;1.23;;;13.00;99.90;;;13.28;100.00;100395.63;4999692;28;20034;-82
2023/07/20 01:54:37;;;;;;;2.60;1.30;;;13.00;99.90;;;13.29;100.00;100393.69;4991057;28;20096;-81
2023/07/20 01:57:04;;;;;;;2.30;1.10;;;12.90;99.90;;;13.22;100.00;100394.66;4990579;28;20073;-82
2023/07/20 01:59:29;;;;;;;2.72;1.02;;;12.90;99.90;;;13.77;100.00;100391.66;4993074;28;20043;-83
2023/07/20 02:01:55;;;;;;;1.95;1.00;;;12.90;99.90;;;13.23;100.00;100381.78;4989687;28;20097;-82
2023/07/20 02:04:21;;;;;;;3.00;1.10;;;12.90;99.90;;;13.21;100.00;100387.53;4991160;28;20031;-82
2023/07/20 02:06:47;;;;;;;2.20;1.38;;;12.90;99.90;;;13.19;100.00;100391.56;4996736;28;20031;-82
2023/07/20 02:09:12;;;;;;;3.42;1.17;;;12.80;99.90;;;13.24;100.00;100391.66;5008756;28;20497;-82
2023/07/20 02:11:38;;;;;;;1.48;1.20;;;12.80;99.90;;;13.04;100.00;100357.31;4987089;28;20039;-82
2023/07/20 02:14:04;;;;;;;1.90;1.27;;;12.80;99.90;;;13.21;100.00;100382.03;4980373;28;20097;-82
2023/07/20 02:16:29;;;;;;;2.55;1.08;;;12.80;99.90;;;13.18;100.00;100377.06;4986387;28;20053;-82
2023/07/20 02:18:58;;;;;;;2.45;1.10;;;12.80;99.90;;;13.20;100.00;100374.06;5000711;28;20030;-82
2023/07/20 02:21:24;;;;;;;2.90;1.23;;;12.80;99.90;;;13.16;100.00;100370.13;4990448;28;20042;-83
2023/07/20 02:23:51;;;;;;;1.80;1.02;;;12.80;99.90;;;13.07;100.00;100369.66;4982328;28;20062;-81
2023/07/20 02:26:17;;;;;;;2.30;1.40;;;12.80;99.90;;;13.00;100.00;100367.09;4989501;28;20027;-84
2023/07/20 02:28:43;;;;;;;2.50;1.20;;;12.70;99.90;;;12.91;100.00;100369.34;4973373;28;20049;-83
2023/07/20 02:31:08;;;;;;;2.15;1.10;;;12.60;99.90;;;12.85;100.00;100364.00;5003159;28;20042;-82
2023/07/20 02:33:34;;;;;;;2.92;1.40;;;12.50;99.90;;;12.74;100.00;100363.75;4990912;28;20038;-83
2023/07/20 02:36:00;;;;;;;3.60;1.80;;;12.40;99.90;;;12.67;100.00;100363.03;4981968;28;20050;-82
2023/07/20 02:38:25;;;;;;;3.00;1.50;;;12.30;99.90;;;12.64;100.00;100363.50;4988908;28;20038;-83
2023/07/20 02:40:51;;;;;;;3.13;1.60;;;12.30;99.90;;;12.61;100.00;100364.84;5003007;28;20093;-82
2023/07/20 02:43:17;;;;;;;3.35;1.73;;;12.20;99.90;;;12.57;100.00;100351.84;4987772;28;20459;-82
2023/07/20 02:45:45;;;;;;;2.70;1.77;;;12.20;99.90;;;12.60;100.00;100359.59;4988755;28;20426;-82
2023/07/20 02:48:10;;;;;;;5.03;2.05;;;12.20;99.90;;;12.56;100.00;100358.41;4989386;28;20031;-83
2023/07/20 02:50:36;;;;;;;3.33;1.63;;;12.20;99.90;;;12.57;100.00;100341.72;5005167;28;20039;-83
2023/07/20 02:53:02;;;;;;;2.92;1.90;;;12.20;99.90;;;12.55;100.00;100343.06;5003605;28;20038;-83
2023/07/20 02:55:29;;;;;;;3.65;2.05;;;12.20;99.90;;;12.64;100.00;100349.81;4993499;28;20581;-83
2023/07/20 02:57:55;;;;;;;3.65;2.30;;;12.20;99.90;;;12.51;100.00;100351.75;4988786;28;20038;-82
2023/07/20 03:00:23;;;;;;;3.20;1.90;;;12.10;99.90;;;12.52;100.00;100345.19;4987303;28;20180;-83
2023/07/20 03:02:48;;;;;;;3.78;2.17;;;12.10;99.90;;;12.56;100.00;100347.44;4996456;28;20126;-83
2023/07/20 03:05:16;;;;;;;2.60;1.90;;;12.20;99.90;;;12.59;100.00;100336.03;4990542;28;20510;-83
2023/07/20 03:07:43;;;;;;;4.32;2.40;;;12.20;99.90;;;12.63;100.00;100334.47;4993641;28;20359;-83
2023/07/20 03:10:09;;;;;;;4.35;2.60;;;12.30;99.90;;;12.71;100.00;100325.91;4989567;28;20030;-83
2023/07/20 03:12:36;;;;;;;4.75;2.78;;;12.40;99.90;;;12.80;100.00;100331.84;4987485;28;20129;-83
2023/07/20 03:15:03;;;;;;;4.05;2.85;;;12.40;99.90;;;12.84;100.00;100326.72;4989217;28;20027;-83
2023/07/20 03:17:28;;;;;;;3.70;2.53;;;12.50;99.90;;;12.87;100.00;100324.38;5002933;28;20062;-83
2023/07/20 03:19:55;;;;;;;4.22;2.78;;;12.50;99.90;;;13.01;100.00;100326.81;4971835;28;20116;-83
2023/07/20 03:22:24;;;;;;;3.80;2.40;;;12.70;99.90;;;13.05;100.00;100326.13;4994418;28;20046;-83
2023/07/20 03:24:52;;;;;;;4.43;2.30;;;12.70;99.90;;;13.13;100.00;100333.13;4992589;28;20027;-82
2023/07/20 03:27:18;;;;;;;4.60;2.70;;;12.70;99.90;;;13.20;100.00;100325.59;4990660;28;20036;-83
2023/07/20 03:29:44;;;;;;;4.05;2.67;;;12.80;99.90;;;13.41;100.00;100325.16;5008392;28;20117;-83
2023/07/20 03:32:11;;;;;;;7.63;2.80;;;12.80;99.90;;;13.45;100.00;100340.91;4988399;28;20109;-83
2023/07/20 03:34:36;;;;;;;3.40;2.30;;;12.90;99.90;;;13.41;100.00;100344.34;4991809;28;20494;-83
2023/07/20 03:37:04;;;;;;;4.55;2.50;;;13.00;99.90;;;13.47;100.00;100352.47;4997180;28;20105;-83
2023/07/20 03:39:30;;;;;;;3.08;2.10;;;13.00;99.90;;;13.61;100.00;100342.06;4986341;28;20031;-83
2023/07/20 03:41:59;;;;;;;3.38;2.10;;;13.10;99.90;;;13.48;100.00;100350.53;4993847;28;20453;-83
2023/07/20 03:44:24;;;;;;;5.28;2.40;;;13.00;99.90;;;13.46;100.00;100342.59;5002436;28;20482;-83
2023/07/20 03:46:50;;;;;;;3.97;2.60;;;13.10;99.90;;;13.86;100.00;100360.06;4998822;28;20050;-82
2023/07/20 03:49:16;;;;;;;4.63;2.42;;;13.10;99.90;;;13.93;100.00;100374.44;4988304;28;20042;-83
2023/07/20 03:51:42;;;;;;;5.57;2.47;;;13.10;99.90;;;13.96;100.00;100378.63;4986619;28;20038;-83
2023/07/20 03:54:07;;;;;;;4.20;2.45;;;13.20;99.90;;;13.78;100.00;100380.47;4991876;28;20034;-83
2023/07/20 03:56:35;;;;;;;3.55;2.55;;;13.20;99.90;;;13.77;100.00;100367.00;4983872;28;20483;-83
2023/07/20 03:59:01;;;;;;;3.47;2.42;;;13.30;99.90;;;13.78;100.00;100355.81;4974190;28;20037;-83
2023/07/20 04:01:28;;;;;;;4.15;2.50;;;13.30;99.90;;;13.94;100.00;100372.56;4979131;28;20046;-83
2023/07/20 04:03:54;;;;;;;3.15;2.08;;;13.40;99.90;;;13.98;100.00;100370.13;4992132;28;20453;-83
2023/07/20 04:06:20;;;;;;;4.30;2.20;;;13.50;99.90;;;14.06;100.00;100373.31;4985943;28;20046;-82
2023/07/20 04:08:47;;;;;;;3.28;2.00;;;13.60;99.90;;;14.13;100.00;100372.31;4996772;28;20395;-83
2023/07/20 04:11:13;;;;;;;2.75;1.90;;;13.60;99.90;;;14.30;100.00;100384.16;4979579;28;20035;-83
2023/07/20 04:13:39;;;;;;;3.03;1.98;;;13.70;99.90;;;14.23;100.00;100381.56;4980156;28;20035;-82
2023/07/20 04:16:05;;;;;;;3.20;1.80;;;13.70;99.90;;;14.32;100.00;100392.13;4989372;28;20395;-83
2023/07/20 04:18:30;;;;;;;3.35;1.98;;;13.80;99.90;;;14.28;100.00;100383.56;4989607;28;20414;-81
2023/07/20 04:20:56;;;;;;;3.28;2.20;;;13.80;99.90;;;14.39;100.00;100403.78;4983014;28;20035;-82
2023/07/20 04:23:22;;;;;;;2.83;2.00;;;13.90;99.90;;;14.42;100.00;100400.53;4987288;28;20080;-82
2023/07/20 04:25:49;;;;;;;3.08;2.10;;;13.90;99.90;;;14.46;100.00;100409.13;4990548;28;20077;-82
2023/07/20 04:28:14;;;;;;;3.85;2.10;;;14.00;99.90;;;14.46;100.00;100420.91;4983848;28;20038;-81
2023/07/20 04:30:51;;;;;;;2.72;1.80;;;14.00;99.90;;;14.50;100.00;100422.06;4981220;28;20036;-82
2023/07/20 04:33:17;;;;;;;3.53;2.00;;;14.00;99.90;;;14.46;100.00;100425.59;4996563;28;20030;-82
2023/07/20 04:35:50;;;;;;;3.65;2.10;;;14.00;99.90;;;14.45;100.00;100422.00;4988013;28;20035;-82
2023/07/20 04:38:35;;;;;;;3.35;2.00;;;14.00;99.90;;;14.45;100.00;100413.75;4997062;28;20077;-81
2023/07/20 04:41:12;;;;;;;3.85;2.30;;;13.90;99.90;;;14.42;100.00;100407.91;5001055;28;20060;-80
2023/07/20 04:43:43;;;;;;;4.97;2.40;;;13.90;99.90;;;14.46;100.00;100404.44;4988985;28;20074;-80
2023/07/20 04:46:10;;;;;;;3.38;2.58;;;13.90;99.90;;;14.47;100.00;100406.09;5004838;28;20100;-79
2023/07/20 04:48:36;;;;;;;5.97;2.50;;;13.90;99.90;;;14.46;100.00;100400.88;4976735;28;20418;-78
2023/07/20 04:51:03;;;;;;;4.88;2.65;;;14.00;99.90;;;14.45;100.00;100408.28;4977389;28;20043;-78
2023/07/20 04:53:29;;;;;;;4.30;3.10;;;14.00;99.90;;;14.41;100.00;100392.53;4981801;28;20041;-77
2023/07/20 04:55:55;;;;;;;4.85;3.00;;;14.00;99.90;;;14.45;100.00;100388.22;4980633;28;20031;-77
2023/07/20 04:58:24;;;;;;;4.95;2.85;;;14.00;99.90;;;14.39;100.00;100376.34;4985840;28;20410;-77
2023/07/20 05:00:52;;;;;;;5.35;3.30;;;14.00;99.90;;;14.30;100.00;100369.56;4998690;28;20039;-77
2023/07/20 05:03:18;;;;;;;6.15;3.33;;;14.10;99.90;;;14.32;100.00;100360.03;4976435;28;20062;-77
2023/07/20 05:05:44;;;;;;;5.55;3.30;;;14.00;99.90;;;14.32;100.00;100360.03;4983249;28;20128;-78
2023/07/20 05:08:11;;;;;;;6.35;3.80;;;14.00;99.90;;;14.34;100.00;100359.78;4997094;28;20031;-77
2023/07/20 05:10:37;;;;;;;5.38;3.58;;;14.00;99.90;;;14.24;100.00;100358.53;4986843;28;20049;-77
2023/07/20 05:13:03;;;;;;;5.50;3.38;;;14.00;99.90;;;14.28;100.00;100363.50;4991419;28;20030;-78
2023/07/20 05:15:28;;;;;;;4.50;3.15;;;14.00;99.90;;;14.12;100.00;100359.69;4980811;28;20031;-76
2023/07/20 05:17:56;;;;;;;4.47;2.47;;;13.90;99.90;;;14.01;100.00;100364.16;4973504;28;20451;-78
2023/07/20 05:20:24;;;;;;;6.22;2.83;;;13.90;99.90;;;13.91;100.00;100365.63;4977531;28;20035;-78
2023/07/20 05:22:50;;;;;;;4.90;2.83;;;13.80;99.90;;;14.09;100.00;100363.75;4998693;28;20034;-78
2023/07/20 05:25:18;;;;;;;5.00;2.95;;;13.80;99.90;;;14.10;100.00;100362.69;4986837;28;20041;-78
2023/07/20 05:27:44;;;;;;;6.22;2.78;;;13.80;99.90;;;14.08;100.00;100381.31;4990786;28;20046;-78
2023/07/20 05:30:10;;;;;;;5.30;2.85;;;13.80;99.90;;;13.99;100.00;100380.00;4986270;28;20058;-77
2023/07/20 05:32:36;;;;;;;3.95;2.60;;;13.80;99.90;;;13.96;100.00;100373.13;5000251;28;20041;-77
2023/07/20 05:35:02;;;;;;;6.13;2.90;;;13.80;99.90;;;13.99;100.00;100369.03;4984034;28;20414;-77
2023/07/20 05:37:29;;;;;;;5.80;3.30;;;13.80;99.90;;;14.10;100.00;100362.69;4987651;28;20142;-77
2023/07/20 05:39:55;;;;;;;5.22;3.38;;;13.80;99.90;;;14.08;100.00;100365.66;4991383;28;20041;-78
2023/07/20 05:42:21;;;;;;;5.80;3.60;;;13.80;99.90;;;14.17;100.00;100362.50;4994067;28;20042;-77
2023/07/20 05:44:49;;;;;;;7.65;4.20;;;13.90;99.90;;;14.12;100.00;100368.75;5010890;28;20049;-78
2023/07/20 05:47:15;;;;;;;6.30;4.43;;;13.90;99.90;;;14.26;100.00;100361.03;4997936;28;20041;-79
2023/07/20 05:49:41;;;;;;;6.35;4.38;;;13.90;99.90;;;14.29;100.00;100359.69;4998989;28;20502;-79
2023/07/20 05:52:07;;;;;;;8.35;4.82;;;14.00;99.90;;;14.38;100.00;100360.97;4993693;28;20035;-79
2023/07/20 05:54:32;;;;;;;5.75;4.40;;;14.00;99.90;;;14.41;100.00;100374.19;4987792;28;20045;-79
2023/07/20 05:56:58;;;;;;;7.40;4.20;;;14.10;99.90;;;14.43;100.00;100388.47;4998184;28;20038;-77
2023/07/20 05:59:24;;;;;;;6.38;4.30;;;14.20;99.90;;;14.60;100.00;100393.16;4983609;28;20074;-76
2023/07/20 06:01:50;;;;;;;6.25;4.25;;;14.30;99.90;;;14.53;100.00;100404.28;4984165;28;20057;-76
2023/07/20 06:04:17;;;;;;;9.18;4.25;;;14.40;99.90;;;14.51;100.00;100407.25;4984052;28;20035;-80
2023/07/20 06:06:43;;;;;;;5.15;4.05;;;14.40;99.90;;;14.55;100.00;100410.34;4986484;28;20521;-78
2023/07/20 06:09:11;;;;;;;6.22;4.38;;;14.40;99.90;;;14.58;100.00;100417.25;4973893;28;20023;-77
2023/07/20 06:11:42;;;;;;;6.72;4.05;;;14.40;99.90;;;14.53;100.00;100420.75;4985033;28;20039;-78
2023/07/20 06:14:07;;;;;;;5.60;3.95;;;14.40;99.90;;;14.61;100.00;100427.75;4984417;28;20117;-77
2023/07/20 06:16:35;;;;;;;8.63;4.50;;;14.50;99.90;;;14.61;100.00;100431.31;4983042;28;20036;-77
2023/07/20 06:19:01;;;;;;;5.50;3.90;;;14.50;99.90;;;14.86;100.00;100448.50;4989072;28;20129;-78
2023/07/20 06:21:26;;;;;;;6.43;3.83;;;14.60;99.90;;;15.01;100.00;100456.97;4984919;28;20535;-78
2023/07/20 06:23:54;;;;;;;4.50;3.47;;;14.80;99.90;;;15.11;100.00;100467.28;4989710;28;20035;-77
2023/07/20 06:26:21;;;;;;;5.18;3.20;;;14.90;99.90;;;15.14;100.00;100476.94;4978309;28;20097;-78
2023/07/20 06:28:47;;;;;;;7.20;3.40;;;15.10;99.90;;;15.57;100.00;100489.09;4989779;28;20038;-78
2023/07/20 06:31:12;;;;;;;4.55;3.47;;;15.30;99.90;;;16.06;100.00;100498.53;4989500;28;20448;-78
2023/07/20 06:33:38;;;;;;;5.45;3.45;;;15.50;99.90;;;16.01;100.00;100501.22;4989862;28;20047;-78
2023/07/20 06:36:04;;;;;;;6.18;2.85;;;15.70;99.90;;;15.58;100.00;100490.75;5000787;28;20045;-78
2023/07/20 06:38:30;;;;;;;5.00;2.60;;;15.70;99.90;;;15.72;100.00;100507.69;4989890;28;20046;-80
2023/07/20 06:40:55;;;;;;;3.85;2.58;;;15.80;99.90;;;15.61;100.00;100525.16;5012145;28;20065;-76
2023/07/20 06:43:21;;;;;;;4.00;2.75;;;15.90;99.90;;;15.93;100.00;100524.50;5011743;28;20098;-77
2023/07/20 06:45:53;;;;;;;4.20;2.95;;;15.90;99.90;;;16.05;100.00;100527.13;4986408;28;20786;-77
2023/07/20 06:48:20;;;;;;;4.45;2.60;;;16.00;99.90;;;16.38;100.00;100526.13;4991874;28;20050;-78
2023/07/20 06:50:46;;;;;;;6.78;2.80;;;16.20;99.90;;;16.21;100.00;100550.16;4983230;28;20041;-78
2023/07/20 06:53:11;;;;;;;4.38;2.83;;;16.20;99.90;;;15.97;100.00;100547.66;4980591;28;20070;-78
2023/07/20 06:55:37;;;;;;;5.38;2.70;;;16.10;99.90;;;16.08;100.00;100556.88;4985875;28;20034;-77
2023/07/20 06:58:04;;;;;;;3.53;2.70;;;16.30;99.90;;;16.13;100.00;100545.13;4992941;28;20046;-79
2023/07/20 07:00:30;;;;;;;5.25;3.10;;;16.30;99.90;;;16.16;100.00;100561.09;5006818;28;20042;-77
2023/07/20 07:02:55;;;;;;;6.20;2.90;;;16.30;99.90;;;16.13;100.00;100561.63;4987860;28;20462;-78
2023/07/20 07:05:21;;;;;;;6.50;3.00;;;16.30;99.90;;;16.14;100.00;100566.84;4992743;28;20043;-79
2023/07/20 07:07:47;;;;;;;4.85;3.17;;;16.30;99.90;;;15.82;100.00;100564.75;4985381;28;20379;-78
2023/07/20 07:10:13;;;;;;;4.68;3.50;;;16.10;99.90;;;15.72;100.00;100551.69;4983431;28;20065;-77
2023/07/20 07:12:39;;;;;;;5.53;3.33;;;16.00;99.90;;;16.04;100.00;100555.72;4987699;28;20030;-77
2023/07/20 07:15:06;;;;;;;3.90;3.22;;;16.10;99.90;;;16.24;100.00;100575.25;4986409;28;20416;-81
2023/07/20 07:17:32;;;;;;;5.80;3.58;;;16.30;99.90;;;16.14;100.00;100577.84;4990128;28;20442;-77
2023/07/20 07:19:58;;;;;;;6.20;3.17;;;16.40;99.90;;;16.18;100.00;100580.94;4988722;28;20085;-77
2023/07/20 07:22:24;;;;;;;6.25;3.40;;;16.40;99.90;;;16.48;100.00;100580.47;4992053;28;20042;-81
2023/07/20 07:24:50;;;;;;;3.97;2.65;;;16.50;99.90;;;17.09;100.00;100587.72;4979923;28;20034;-79
2023/07/20 07:27:18;;;;;;;4.75;2.63;;;17.00;99.90;;;16.84;100.00;100588.25;4990730;28;20125;-81
2023/07/20 07:29:44;;;;;;;5.32;2.35;;;17.20;99.90;;;17.01;100.00;100577.19;4993357;28;20458;-81
2023/07/20 07:32:11;;;;;;;6.07;3.17;;;17.30;99.90;;;16.90;100.00;100592.75;4991331;28;20074;-79
2023/07/20 07:34:37;;;;;;;3.88;3.08;;;17.10;99.90;;;17.05;100.00;100594.00;4992914;28;20077;-78
2023/07/20 07:37:04;;;;;;;4.35;2.40;;;17.20;99.90;;;17.46;100.00;100586.09;4992816;28;20155;-80
2023/07/20 07:39:30;;;;;;;4.72;2.42;;;17.40;99.90;;;17.62;100.00;100586.19;4991479;28;20042;-80
2023/07/20 07:41:56;;;;;;;5.13;2.70;;;17.70;99.90;;;17.56;100.00;100598.28;4992144;28;20553;-79
2023/07/20 07:44:23;;;;;;;4.28;2.70;;;17.80;99.90;;;17.33;100.00;100597.56;4987812;28;20039;-81
2023/07/20 07:46:49;;;;;;;4.38;2.42;;;17.60;99.90;;;18.13;100.00;100605.00;4989251;28;20050;-81
2023/07/20 07:49:16;;;;;;;5.53;1.77;;;18.00;99.90;;;18.14;100.00;100601.13;4982505;28;20133;-80
2023/07/20 07:51:42;;;;;;;3.97;1.97;;;18.10;99.90;;;17.43;100.00;100605.94;4979121;28;20079;-80
2023/07/20 07:54:08;;;;;;;3.70;2.00;;;17.80;99.90;;;17.10;100.00;100599.56;4988661;28;20043;-81
2023/07/20 07:56:33;;;;;;;4.13;1.88;;;17.40;99.90;;;17.19;100.00;100608.19;4986715;28;20398;-81
2023/07/20 07:58:59;;;;;;;5.40;3.35;;;17.20;99.90;;;17.39;100.00;100605.59;4988312;28;20065;-80
2023/07/20 08:01:25;;;;;;;3.85;1.75;;;17.40;99.90;;;17.43;100.00;100616.94;4991448;28;20092;-79
2023/07/20 08:03:51;;;;;;;1.90;1.17;;;17.60;99.90;;;17.19;100.00;100609.03;4984071;28;20074;-79
2023/07/20 08:06:17;;;;;;;2.78;1.25;;;17.40;99.90;;;17.02;100.00;100620.19;4982296;28;20046;-80
2023/07/20 08:08:43;;;;;;;2.10;1.20;;;17.30;99.90;;;17.10;100.00;100611.44;4991945;28;20044;-78
2023/07/20 08:11:09;;;;;;;1.75;1.20;;;17.30;99.90;;;17.57;100.00;100622.00;4980148;28;20125;-80
2023/07/20 08:13:35;;;;;;;3.28;1.17;;;17.60;99.90;;;18.11;100.00;100610.78;4990805;28;20128;-77
2023/07/20 08:16:05;;;;;;;4.35;1.15;;;18.20;99.90;;;17.93;100.00;100609.28;4992034;28;20471;-80
2023/07/20 08:18:31;;;;;;;2.15;1.00;;;18.20;99.90;;;18.25;100.00;100608.34;4979725;28;20053;-81
2023/07/20 08:20:57;;;;;;;2.33;1.40;;;18.40;99.90;;;18.15;100.00;100610.22;4991009;28;20034;-79
2023/07/20 08:23:22;;;;;;;2.42;1.40;;;18.50;99.90;;;18.28;100.00;100603.38;4986325;28;20483;-78
2023/07/20 08:25:48;;;;;;;4.20;1.50;;;18.40;99.90;;;18.08;100.00;100599.47;4986685;28;20042;-80
2023/07/20 08:28:16;;;;;;;2.72;1.40;;;18.30;99.90;;;18.39;100.00;100594.06;4985863;28;20026;-79
2023/07/20 08:30:44;;;;;;;3.42;1.30;;;18.50;99.90;;;18.39;100.00;100588.53;4992087;28;20117;-80
2023/07/20 08:33:15;;;;;;;3.33;1.25;;;18.70;99.90;;;18.76;97.36;100595.81;4990494;28;20042;-78
2023/07/20 08:35:42;;;;;;;2.45;1.10;;;18.80;99.90;;;18.92;93.71;100582.03;4991315;28;20057;-78
2023/07/20 08:38:09;;;;;;;2.17;1.00;;;18.90;99.90;;;18.78;94.79;100585.31;4978785;28;20042;-78
2023/07/20 08:40:44;;;;;;;2.35;1.42;;;19.00;99.90;;;18.83;97.64;100595.56;4981234;28;20293;-78
2023/07/20 08:43:12;;;;;;;2.35;1.50;;;19.10;99.90;;;18.90;100.00;100601.63;4986552;28;20089;-77
2023/07/20 08:45:40;;;;;;;2.42;1.25;;;19.20;99.90;;;18.57;100.00;100609.31;4984975;28;20030;-78
2023/07/20 08:48:08;;;;;;;1.48;1.17;;;18.90;99.90;;;18.93;100.00;100603.84;4982394;28;20065;-79
2023/07/20 08:50:35;;;;;;;1.30;1.10;;;19.10;99.90;;;19.27;94.60;100597.00;4985534;28;20062;-79
2023/07/20 08:53:02;;;;;;;3.33;1.17;;;19.40;99.90;;;19.32;96.47;100593.41;4990484;28;20083;-79
2023/07/20 08:55:29;;;;;;;2.20;1.15;;;19.50;99.90;;;19.03;86.25;100583.72;4990550;28;20054;-80
2023/07/20 08:57:58;;;;;;;1.17;0.80;;;19.50;97.80;;;18.52;84.79;100592.72;4977531;28;20446;-79
2023/07/20 09:00:26;;;;;;;2.13;1.10;;;19.10;97.80;;;18.66;89.41;100601.31;4980279;28;20086;-80
2023/07/20 09:02:56;;;;;;;3.22;1.25;;;19.00;99.00;;;19.14;88.92;100598.38;4998304;28;20578;-79
2023/07/20 09:05:24;;;;;;;2.55;0.73;;;19.20;99.40;;;19.59;81.91;100584.78;4991817;28;20042;-80
2023/07/20 09:07:52;;;;;;;3.35;1.23;;;19.60;97.80;;;19.30;86.01;100584.56;4982070;28;20047;-78
2023/07/20 09:10:23;;;;;;;1.92;0.93;;;19.60;98.10;;;20.04;86.14;100587.78;4990595;28;20117;-81
2023/07/20 09:12:50;;;;;;;3.15;1.10;;;19.90;98.70;;;20.32;83.55;100587.38;4991095;28;20044;-79
2023/07/20 09:15:17;;;;;;;2.03;0.90;;;20.30;98.40;;;20.21;79.79;100584.66;4984817;28;20394;-83
2023/07/20 09:17:48;;;;;;;1.58;0.77;;;20.50;96.70;;;20.11;80.07;100582.75;4975378;28;20178;-79
2023/07/20 09:20:16;;;;;;;1.80;0.80;;;20.30;96.90;;;20.14;74.86;100575.81;4990219;28;20057;-80
2023/07/20 09:22:43;;;;;;;3.05;1.10;;;20.30;95.40;;;20.24;70.56;100575.78;4986277;28;20038;-80
2023/07/20 09:25:16;;;;;;;2.40;0.85;;;20.50;94.60;;;20.61;74.00;100583.88;4990898;28;20030;-78
2023/07/20 09:27:45;;;;;;;1.60;0.80;;;20.60;95.10;;;21.00;69.61;100576.72;4977727;28;20037;-78
2023/07/20 09:30:14;;;;;;;3.63;1.17;;;21.00;94.30;;;20.74;70.26;100593.50;4987783;28;20483;-80
2023/07/20 09:32:52;;;;;;;1.55;0.82;;;21.00;94.20;;;20.31;65.19;100574.63;4977310;28;20058;-79
2023/07/20 09:35:22;;;;;;;1.92;0.90;;;20.70;92.50;;;19.98;63.67;100581.41;4980634;28;20064;-79
2023/07/20 09:37:58;;;;;;;2.25;0.75;;;20.50;91.80;;;20.53;60.82;100575.06;4984204;28;20460;-78
2023/07/20 09:40:26;;;;;;;1.38;0.80;;;20.80;91.90;;;20.48;60.60;100579.81;4988219;28;20121;-78
2023/07/20 09:43:00;;;;;;;1.60;1.05;;;20.70;91.40;;;20.41;68.62;100592.03;4982431;28;20125;-79
2023/07/20 09:45:42;;;;;;;1.92;0.90;;;20.70;93.20;;;21.08;63.95;100582.50;4989099;28;20041;-80
2023/07/20 09:48:11;;;;;;;2.75;0.70;;;20.90;92.60;;;21.52;56.76;100574.34;4988900;28;20058;-81
2023/07/20 09:50:42;;;;;;;2.72;0.93;;;21.30;91.10;;;21.83;52.88;100563.75;4989605;28;20034;-79
2023/07/20 09:53:13;;;;;;;1.50;0.73;;;21.60;88.60;;;21.99;54.59;100561.63;4979380;28;20435;-79
2023/07/20 09:55:41;;;;;;;1.77;0.75;;;21.90;89.90;;;21.93;53.89;100562.81;4981891;28;20037;-80
2023/07/20 09:58:09;;;;;;;1.50;0.75;;;22.20;88.60;;;22.63;52.21;100566.09;4988885;28;20044;-79
2023/07/20 10:00:38;;;;;;;1.75;0.80;;;22.70;87.20;;;22.32;51.44;100565.69;4982788;28;20049;-80
2023/07/20 10:03:06;;;;;;;1.02;0.52;;;22.60;84.80;;;21.25;52.10;100564.63;4987571;28;20043;-79
2023/07/20 10:05:38;;;;;;;2.15;0.85;;;22.00;83.30;;;21.14;51.27;100569.41;4979052;28;20035;-78
2023/07/20 10:08:11;;;;;;;1.50;0.70;;;21.90;83.20;;;21.88;51.49;100578.69;4979326;28;20121;-77
2023/07/20 10:10:43;;;;;;;3.08;1.10;;;22.20;84.70;;;21.49;51.08;100574.94;4989604;28;20376;-81